Latest Weather Observations for Tamworth Airport

IDN60801

Issued at 10:35 pm EST Thursday 24 April 2014 (issued every 30 minutes, with the page automatically refreshed every 10 minutes)

About weather observations | Map of weather stations | Latest weather observations for NSW | Other Formats
Station Details ID: 055325 Name: TAMWORTH AIRPORT AWS Lat: -31.07 Lon: 150.84 Height: 394.9 m
Data from the previous 72 hours. | See also: Recent months at Tamworth Airport
Date/Time
EST
Temp
°C
App
Temp
°C
Dew
Point
Rel
Hum
%
Delta-T
°C
Wind Press
QNH
hPa
Press
MSL
hPa
Rain
since 9 am
mm
Dir
 
Spd
km/h
Gust
km/h
Spd
kts
Gust
kts
24/10:30pm 16.4 14.0 7.1 54 4.7 SE 9 11 5 6 1017.4 - 0.0
24/10:00pm 17.0 13.8 6.8 51 5.1 SE 13 15 7 8 1017.5 - 0.0
24/09:30pm 17.0 15.6 7.1 52 5.0 SSE 4 9 2 5 1017.5 - 0.0
24/09:00pm 16.8 15.4 7.4 54 4.8 SSE 4 9 2 5 1017.3 1016.3 0.0
24/08:30pm 18.1 17.3 8.1 52 5.2 NW 2 9 1 5 1017.1 - 0.0
24/08:00pm 17.2 13.8 7.5 53 5.0 SSE 15 15 8 8 1016.8 - 0.0
24/07:30pm 17.9 14.9 7.6 51 5.3 SSE 13 17 7 9 1016.6 - 0.0
24/07:00pm 19.5 16.0 7.3 45 6.3 SE 15 17 8 9 1016.4 - 0.0
24/06:30pm 21.5 17.4 6.2 37 7.9 SSE 17 24 9 13 1016.0 - 0.0
24/06:00pm 23.5 21.0 4.0 28 9.7 NNE 6 9 3 5 1015.3 1014.3 0.0
24/05:30pm 24.9 23.5 3.5 25 10.7 CALM 0 0 0 0 1014.9 - 0.0
24/05:00pm 25.3 21.7 2.7 23 11.2 S 11 19 6 10 1014.6 - 0.0
24/04:30pm 26.8 23.6 5.1 25 11.3 W 11 17 6 9 1014.5 - 0.0
24/04:00pm 27.8 24.7 5.4 24 11.8 NW 11 17 6 9 1014.6 - 0.0
24/03:30pm 27.7 23.8 5.3 24 11.8 WNW 15 22 8 12 1014.5 - 0.0
24/03:00pm 28.2 23.4 4.5 22 12.3 WNW 19 28 10 15 1014.6 1013.6 0.0
24/02:30pm 28.2 23.2 6.3 25 11.7 WNW 22 35 12 19 1014.8 - 0.0
24/02:00pm 27.6 22.8 5.8 25 11.5 WNW 20 30 11 16 1015.0 - 0.0
24/01:30pm 27.5 22.6 6.8 27 11.1 NW 22 32 12 17 1015.3 - 0.0
24/01:00pm 27.6 23.3 8.0 29 10.8 NNW 20 30 11 16 1015.7 - 0.0
24/12:30pm 27.2 24.7 8.1 30 10.5 NNW 11 22 6 12 1016.2 - 0.0
24/12:00pm 26.5 22.4 8.5 32 9.9 NW 20 24 11 13 1016.7 1015.7 0.0
24/11:30am 25.4 21.7 8.0 33 9.5 NW 17 28 9 15 1017.2 - 0.0
24/11:00am 24.9 22.0 8.0 34 9.2 N 13 20 7 11 1017.8 - 0.0
24/10:30am 24.0 22.6 8.8 38 8.3 NNE 6 9 3 5 1018.1 - 0.0
24/10:00am 23.2 21.2 8.5 39 8.0 NE 9 15 5 8 1018.6 - 0.0
24/09:30am 22.8 21.9 9.2 42 7.4 E 4 13 2 7 1018.7 - 0.0
24/09:00am 20.4 18.7 8.4 46 6.4 SSE 7 11 4 6 1018.8 1017.8 0.0
24/08:30am 18.4 16.8 8.7 53 5.1 SE 7 11 4 6 1018.7 - 0.0
24/08:00am 16.6 15.0 8.6 59 4.2 SSE 7 11 4 6 1018.4 - 0.0
24/07:30am 14.4 12.3 8.1 66 3.2 SE 9 11 5 6 1018.0 - 0.0
24/07:00am 12.4 10.7 8.3 76 2.1 SE 7 11 4 6 1017.7 - 0.0
24/06:30am 10.5 8.5 7.0 79 1.7 SE 7 11 4 6 1017.5 - 0.0
24/06:00am 10.7 9.9 6.6 76 2.0 SE 0 4 0 2 1017.3 1016.3 0.0
24/05:30am 11.5 9.5 7.0 74 2.2 SE 7 9 4 5 1017.0 - 0.0
24/05:00am 11.8 9.2 7.7 76 2.0 SE 11 13 6 7 1016.7 - 0.0
24/04:30am 11.2 9.3 7.5 78 1.8 SE 7 9 4 5 1016.7 - 0.0
24/04:00am 11.4 9.1 7.5 77 1.9 SE 9 13 5 7 1016.4 - 0.0
24/03:30am 11.1 9.2 7.4 78 1.8 SSE 7 11 4 6 1016.3 - 0.0
24/03:00am 10.7 8.3 7.2 79 1.7 SSE 9 11 5 6 1016.3 1015.3 0.0
24/02:30am 10.4 8.3 6.5 77 1.9 SSW 7 11 4 6 1016.5 - 0.0
24/02:00am 12.1 9.8 7.4 73 2.3 ESE 9 11 5 6 1016.6 - 0.0
24/01:30am 12.7 11.2 8.4 75 2.2 S 6 7 3 4 1016.8 - 0.0
24/01:00am 11.7 9.7 6.2 69 2.6 S 6 9 3 5 1017.0 - 0.0
24/12:30am 12.6 11.9 6.9 68 2.8 ESE 0 6 0 3 1017.1 - 0.0
24/12:00am 14.2 11.6 7.7 65 3.3 ESE 11 11 6 6 1017.2 1016.2 0.0
 
Date/Time
EST
Temp
°C
App
Temp
°C
Dew
Point
Rel
Hum
%
Delta-T
°C
Wind Press
QNH
hPa
Press
MSL
hPa
Rain
since 9 am
mm
Dir
 
Spd
km/h
Gust
km/h
Spd
kts
Gust
kts
23/11:30pm 13.8 12.4 7.3 65 3.2 ESE 4 7 2 4 1017.3 - 0.0
23/11:00pm 14.7 12.9 8.0 64 3.4 SSE 7 11 4 6 1017.3 - 0.0
23/10:30pm 14.2 12.2 7.3 63 3.5 S 7 9 4 5 1017.3 - 0.0
23/10:00pm 15.0 12.5 8.3 64 3.4 S 11 15 6 8 1017.2 - 0.0
23/09:30pm 15.8 13.5 7.6 58 4.2 SSE 9 9 5 5 1017.1 - 0.0
23/09:00pm 16.8 15.1 7.7 55 4.7 SE 6 6 3 3 1017.1 1016.1 0.0
23/08:30pm 17.4 16.9 7.7 53 5.0 CALM 0 0 0 0 1017.1 - 0.0
23/08:00pm 18.0 16.7 7.7 51 5.3 NNE 4 6 2 3 1017.0 - 0.0
23/07:30pm 19.2 17.6 7.9 48 5.9 ENE 6 7 3 4 1016.9 - 0.0
23/07:00pm 17.2 16.3 6.1 48 5.5 CALM 0 0 0 0 1016.9 - 0.0
23/06:30pm 20.3 18.3 7.3 43 6.8 NNW 7 9 4 5 1016.8 - 0.0
23/06:00pm 20.7 18.7 7.0 41 7.1 NNW 7 9 4 5 1016.5 1015.5 0.0
23/05:30pm 22.2 19.4 6.8 37 8.0 NW 11 13 6 7 1016.3 - 0.0
23/05:00pm 25.1 21.5 6.8 31 9.7 WNW 15 19 8 10 1016.1 - 0.0
23/04:30pm 26.0 22.1 7.1 30 10.1 WNW 17 28 9 15 1015.9 - 0.0
23/04:00pm 26.9 22.1 5.8 26 11.1 WNW 20 30 11 16 1015.8 - 0.0
23/03:30pm 27.0 21.9 5.9 26 11.2 WNW 22 30 12 16 1015.8 - 0.0
23/03:00pm 28.0 22.3 5.0 23 12.0 NW 24 35 13 19 1015.7 1014.6 0.0
23/02:30pm 27.9 22.2 4.9 23 12.0 W 24 35 13 19 1015.9 - 0.0
23/02:00pm 28.7 23.4 4.9 22 12.5 WNW 22 35 12 19 1015.9 - 0.0
23/01:30pm 26.2 21.0 5.7 27 10.8 NW 22 32 12 17 1016.0 - 0.0
23/01:00pm 27.2 22.5 9.1 32 10.1 NNW 24 35 13 19 1016.4 - 0.0
23/12:30pm 27.0 22.7 9.4 33 9.9 N 22 37 12 20 1016.9 - 0.0
23/12:00pm 26.5 21.2 8.5 32 9.9 N 26 35 14 19 1017.5 1016.5 0.0
23/11:30am 25.9 21.1 8.8 34 9.4 NNW 24 39 13 21 1018.1 - 0.0
23/11:00am 25.7 20.5 8.7 34 9.4 NNW 26 37 14 20 1018.7 - 0.0
23/10:30am 24.7 19.5 9.0 37 8.7 NNW 26 35 14 19 1019.2 - 0.0
23/10:00am 24.2 19.4 9.0 38 8.4 N 24 32 13 17 1019.3 - 0.0
23/09:30am 23.1 17.6 9.1 41 7.7 N 28 39 15 21 1019.5 - 0.0
23/09:00am 22.8 17.9 9.9 44 7.1 N 26 35 14 19 1019.6 1018.6 0.0
23/08:30am 21.1 19.9 10.3 50 6.0 N 7 19 4 10 1019.8 - 0.0
23/08:00am 19.1 19.5 11.2 60 4.4 CALM 0 7 0 4 1019.8 - 0.0
23/07:30am 16.3 15.6 12.1 76 2.3 SSE 7 9 4 5 1019.8 - 0.0
23/07:00am 13.9 12.3 10.1 78 2.0 ESE 9 11 5 6 1019.7 - 0.0
23/06:30am 13.8 13.4 9.8 77 2.1 W 2 9 1 5 1019.5 - 0.0
23/06:00am 14.4 12.9 10.6 78 2.0 WSW 9 11 5 6 1019.3 1018.3 0.0
23/05:30am 13.4 12.2 10.2 81 1.7 WSW 7 11 4 6 1019.0 - 0.0
23/05:00am 15.2 15.5 11.0 76 2.3 CALM 0 0 0 0 1018.6 - 0.0
23/04:30am 13.2 13.3 10.0 81 1.7 CALM 0 0 0 0 1018.6 - 0.0
23/04:00am 14.2 14.2 11.0 81 1.7 SE 2 6 1 3 1018.5 - 0.0
23/03:30am 13.8 13.9 10.0 78 2.0 CALM 0 0 0 0 1018.3 - 0.0
23/03:00am 14.5 14.0 10.7 78 2.0 SSW 4 7 2 4 1018.0 1017.0 0.0
23/02:30am 14.5 13.3 10.3 76 2.2 S 7 9 4 5 1018.1 - 0.0
23/02:00am 14.9 13.2 9.9 72 2.7 ESE 9 13 5 7 1018.1 - 0.0
23/01:30am 15.8 13.9 10.6 71 2.8 E 11 13 6 7 1018.3 - 0.0
23/01:00am 16.6 15.1 10.7 68 3.2 ESE 9 11 5 6 1018.6 - 0.0
23/12:30am 17.4 17.5 11.4 68 3.3 NW 2 9 1 5 1018.5 - 0.0
23/12:00am 17.6 16.7 11.4 67 3.4 ESE 7 9 4 5 1018.4 1017.4 0.0
 
Date/Time
EST
Temp
°C
App
Temp
°C
Dew
Point
Rel
Hum
%
Delta-T
°C
Wind Press
QNH
hPa
Press
MSL
hPa
Rain
since 9 am
mm
Dir
 
Spd
km/h
Gust
km/h
Spd
kts
Gust
kts
22/11:30pm 17.8 16.9 11.4 66 3.6 ESE 7 13 4 7 1018.4 - 0.0
22/11:00pm 17.4 16.4 11.0 66 3.5 ESE 7 9 4 5 1018.4 - 0.0
22/10:30pm 18.0 16.6 10.9 63 3.9 SW 9 11 5 6 1018.5 - 0.0
22/10:00pm 17.9 16.1 11.0 64 3.8 SW 11 13 6 7 1018.4 - 0.0
22/09:30pm 19.5 19.2 11.5 60 4.5 W 4 7 2 4 1018.3 - 0.0
22/09:00pm 18.6 17.7 11.2 62 4.1 W 7 7 4 4 1018.3 1017.3 0.0
22/08:30pm 17.3 15.8 10.4 64 3.7 WSW 9 11 5 6 1018.1 - 0.0
22/08:00pm 19.2 19.4 10.7 58 4.7 CALM 0 0 0 0 1018.1 - 0.0
22/07:30pm 19.3 19.5 10.6 57 4.8 CALM 0 0 0 0 1018.0 - 0.0
22/07:00pm 19.9 18.8 10.6 55 5.1 N 7 9 4 5 1018.0 - 0.0
22/06:30pm 20.7 19.6 10.8 53 5.5 N 7 9 4 5 1017.7 - 0.0
22/06:00pm 21.4 19.9 10.6 50 6.0 N 9 11 5 6 1017.6 1016.6 0.0
22/05:30pm 22.8 20.5 10.6 46 6.8 N 13 17 7 9 1017.5 - 0.0
22/05:00pm 24.1 21.5 10.7 43 7.6 N 15 17 8 9 1017.4 - 0.0
22/04:30pm 24.9 21.3 10.0 39 8.4 NW 19 24 10 13 1017.3 - 0.0
22/04:00pm 26.2 22.3 9.5 35 9.4 NW 20 33 11 18 1017.3 - 0.0
22/03:30pm 25.6 21.4 9.8 37 8.9 NW 22 30 12 16 1017.5 - 0.0
22/03:00pm 26.2 20.4 9.5 35 9.3 NW 30 37 16 20 1017.6 1016.6 0.0
22/02:30pm 26.2 20.7 9.1 34 9.5 NW 28 39 15 21 1017.7 - 0.0
22/02:00pm 26.9 22.2 9.3 33 9.9 NW 24 35 13 19 1017.8 - 0.0
22/01:30pm 26.8 21.6 8.7 32 10.0 NW 26 39 14 21 1018.1 - 0.0
22/01:00pm 26.5 20.8 8.5 32 9.9 NW 28 37 15 20 1018.6 - 0.0
22/12:30pm 25.4 22.2 10.1 38 8.6 NNW 17 30 9 16 1019.2 - 0.0
22/12:00pm 24.8 22.0 9.9 39 8.3 NW 15 26 8 14 1019.9 1018.9 0.0
22/11:30am 24.4 20.5 10.7 42 7.8 NW 22 33 12 18 1020.3 - 0.0
22/11:00am 23.5 18.8 10.6 44 7.3 NW 26 35 14 19 1020.7 - 0.0
22/10:30am 21.8 16.9 10.0 47 6.5 N 26 33 14 18 1021.3 - 0.0
22/10:25am 21.9 16.7 10.1 47 6.5 N 28 35 15 19 1021.3 - 0.0
22/10:00am 20.1 18.2 9.1 49 5.9 N 9 15 5 8 1021.6 - 0.0
22/09:30am 17.8 15.8 7.0 49 5.5 SE 7 11 4 6 1021.9 - 0.0
22/09:00am 16.0 13.0 5.9 51 5.0 SSE 11 13 6 7 1022.0 1021.0 0.0
22/08:30am 13.3 10.2 5.7 60 3.7 SSE 11 13 6 7 1022.0 - 0.0
22/08:00am 12.3 9.1 5.0 61 3.4 SE 11 13 6 7 1022.0 - 0.0
22/07:30am 10.3 7.1 5.1 70 2.4 ESE 11 13 6 7 1021.7 - 0.0
22/07:00am 8.0 6.5 4.8 80 1.4 ESE 2 6 1 3 1021.6 - 0.0
22/06:30am 6.9 3.9 3.9 81 1.3 S 9 11 5 6 1021.1 - 0.0
22/06:00am 5.8 3.5 2.8 81 1.3 SSE 4 7 2 4 1021.0 1020.0 0.0
22/05:30am 5.3 3.6 2.0 79 1.4 CALM 0 0 0 0 1020.6 - 0.0
22/05:00am 6.3 4.7 2.4 76 1.6 CALM 0 0 0 0 1020.3 - 0.0
22/04:30am 6.8 4.9 2.9 76 1.7 SSE 2 7 1 4 1020.3 - 0.0
22/04:00am 7.1 4.4 2.6 73 1.9 S 6 7 3 4 1020.1 - 0.0
22/03:30am 7.4 4.8 3.3 75 1.8 SSE 6 9 3 5 1020.0 - 0.0
22/03:00am 7.6 4.5 3.5 75 1.8 SSE 9 13 5 7 1019.9 1018.9 0.0
22/02:30am 8.2 4.8 3.9 74 1.9 SSE 11 13 6 7 1020.1 - 0.0
22/02:00am 6.2 4.4 1.3 71 2.0 CALM 0 0 0 0 1020.4 - 0.0
22/01:30am 9.6 8.3 4.0 68 2.5 CALM 0 0 0 0 1020.5 - 0.0
22/01:00am 9.4 8.0 3.8 68 2.5 CALM 0 0 0 0 1020.5 - 0.0
22/12:30am 7.6 5.9 1.7 66 2.5 CALM 0 0 0 0 1020.7 - 0.0
22/12:00am 9.7 6.5 3.0 63 2.9 SE 9 13 5 7 1020.6 1019.7 0.0
 
Date/Time
EST
Temp
°C
App
Temp
°C
Dew
Point
Rel
Hum
%
Delta-T
°C
Wind Press
QNH
hPa
Press
MSL
hPa
Rain
since 9 am
mm
Dir
 
Spd
km/h
Gust
km/h
Spd
kts
Gust
kts
21/11:30pm 10.2 7.0 3.3 62 3.1 SSE 9 11 5 6 1020.7 - 0.0
21/11:00pm 10.7 7.0 4.4 65 2.9 SE 13 15 7 8 1020.7 - 0.0

Other Formats:

Comma delimited format used in spreadsheet applications
http://www.bom.gov.au/fwo/IDN60801/IDN60801.95762.axf

JavaScript Object Notation format (JSON) in row-major order
http://www.bom.gov.au/fwo/IDN60801/IDN60801.95762.json